createdAt,value
2016-11-08T00:00:02.634Z,945.08
2016-11-08T00:01:02.646Z,945.1
2016-11-08T00:02:02.660Z,945.09
2016-11-08T00:03:02.678Z,945.08
2016-11-08T00:04:02.689Z,945.1
2016-11-08T00:05:02.703Z,945.06
2016-11-08T00:06:02.718Z,945.05
2016-11-08T00:07:02.734Z,945.03
2016-11-08T00:08:02.750Z,945.03
2016-11-08T00:09:02.761Z,945
2016-11-08T00:10:02.776Z,945.03
2016-11-08T00:11:02.790Z,945.02
2016-11-08T00:12:02.804Z,945.01
2016-11-08T00:13:02.819Z,944.96
2016-11-08T00:14:02.835Z,944.99
2016-11-08T00:15:02.847Z,944.99
2016-11-08T00:16:02.861Z,944.97
2016-11-08T00:17:02.875Z,944.95
2016-11-08T00:18:02.890Z,944.95
2016-11-08T00:19:02.904Z,944.98
2016-11-08T00:20:02.920Z,944.93
2016-11-08T00:21:02.953Z,944.91
2016-11-08T00:22:02.947Z,944.96
2016-11-08T00:23:02.961Z,944.99
2016-11-08T00:24:02.974Z,944.98
2016-11-08T00:25:02.990Z,944.99
2016-11-08T00:26:03.004Z,944.96
2016-11-08T00:27:03.018Z,944.96
2016-11-08T00:28:03.150Z,944.92
2016-11-08T00:29:03.049Z,944.89
2016-11-08T00:30:03.061Z,944.92
2016-11-08T00:31:03.075Z,944.92
2016-11-08T00:32:03.090Z,944.94
2016-11-08T00:33:03.104Z,944.92
2016-11-08T00:34:03.118Z,944.93
2016-11-08T00:35:03.132Z,944.96
2016-11-08T00:36:03.148Z,944.92
2016-11-08T00:37:03.160Z,944.94
2016-11-08T00:38:03.174Z,944.95
2016-11-08T00:39:03.188Z,944.89
2016-11-08T00:40:03.204Z,944.89
2016-11-08T00:41:03.217Z,944.91
2016-11-08T00:42:03.258Z,944.92
2016-11-08T00:43:03.246Z,944.91
2016-11-08T00:44:03.261Z,944.9
2016-11-08T00:45:03.275Z,944.89
2016-11-08T00:46:03.289Z,944.89
2016-11-08T00:47:03.303Z,944.92
2016-11-08T00:48:03.317Z,944.92
2016-11-08T00:49:03.331Z,944.92
2016-11-08T00:50:03.364Z,944.93
2016-11-08T00:51:03.360Z,944.9
2016-11-08T00:52:03.373Z,944.89
2016-11-08T00:53:03.388Z,944.9
2016-11-08T00:54:03.402Z,944.9
2016-11-08T00:55:03.417Z,944.9
2016-11-08T00:56:03.429Z,944.89
2016-11-08T00:57:03.448Z,944.86
2016-11-08T00:58:03.461Z,944.9
2016-11-08T00:59:03.473Z,944.85
2016-11-08T01:00:03.488Z,944.86
2016-11-08T01:01:03.502Z,944.9
2016-11-08T01:02:03.516Z,944.9
2016-11-08T01:03:03.530Z,944.91
2016-11-08T01:04:03.544Z,944.88
2016-11-08T01:05:03.559Z,944.87
2016-11-08T01:06:03.573Z,944.88
2016-11-08T01:07:03.587Z,944.87
2016-11-08T01:08:03.601Z,944.88
2016-11-08T01:09:03.615Z,944.86
2016-11-08T01:10:03.629Z,944.83
2016-11-08T01:11:03.643Z,944.84
2016-11-08T01:12:03.666Z,944.82
2016-11-08T01:13:03.673Z,944.81
2016-11-08T01:14:03.686Z,944.82
2016-11-08T01:15:03.701Z,944.81
2016-11-08T01:16:03.716Z,944.78
2016-11-08T01:17:03.730Z,944.81
2016-11-08T01:18:03.743Z,944.81
2016-11-08T01:19:03.776Z,944.77
2016-11-08T01:20:03.772Z,944.79
2016-11-08T01:21:03.786Z,944.76
2016-11-08T01:22:03.799Z,944.76
2016-11-08T01:23:03.816Z,944.77
2016-11-08T01:24:03.830Z,944.68
2016-11-08T01:25:03.843Z,944.75
2016-11-08T01:26:03.860Z,944.74
2016-11-08T01:27:03.871Z,944.73
2016-11-08T01:28:03.887Z,944.69
2016-11-08T01:29:03.901Z,944.69
2016-11-08T01:30:03.917Z,944.66
2016-11-08T01:31:03.931Z,944.64
2016-11-08T01:32:03.944Z,944.68
2016-11-08T01:33:03.959Z,944.69
2016-11-08T01:34:03.996Z,944.68
2016-11-08T01:35:03.988Z,944.67
2016-11-08T01:36:04.002Z,944.68
2016-11-08T01:37:04.016Z,944.66
2016-11-08T01:38:04.031Z,944.66
2016-11-08T01:39:04.044Z,944.66
2016-11-08T01:40:04.059Z,944.63
2016-11-08T01:41:04.076Z,944.67
2016-11-08T01:42:04.087Z,944.63
2016-11-08T01:43:04.101Z,944.61
2016-11-08T01:44:04.116Z,944.63
2016-11-08T01:45:04.131Z,944.61
2016-11-08T01:46:04.146Z,944.66
2016-11-08T01:47:04.160Z,944.64
2016-11-08T01:48:04.186Z,944.63
2016-11-08T01:49:04.191Z,944.61
2016-11-08T01:50:04.203Z,944.61
2016-11-08T01:51:04.217Z,944.6
2016-11-08T01:52:04.233Z,944.58
2016-11-08T01:53:04.246Z,944.59
2016-11-08T01:54:04.260Z,944.58
2016-11-08T01:55:04.274Z,944.56
2016-11-08T01:56:04.289Z,944.57
2016-11-08T01:57:04.303Z,944.52
2016-11-08T01:58:04.317Z,944.5
2016-11-08T01:59:04.332Z,944.51
2016-11-08T02:00:04.347Z,944.57
2016-11-08T02:01:04.359Z,944.57
2016-11-08T02:02:04.376Z,944.57
2016-11-08T02:03:04.409Z,944.55
2016-11-08T02:04:04.404Z,944.55
2016-11-08T02:05:04.421Z,944.55
2016-11-08T02:06:04.432Z,944.52
2016-11-08T02:07:04.447Z,944.53
2016-11-08T02:08:04.461Z,944.48
2016-11-08T02:09:04.475Z,944.5
2016-11-08T02:10:04.492Z,944.52
2016-11-08T02:11:04.504Z,944.53
2016-11-08T02:12:04.518Z,944.53
2016-11-08T02:13:04.533Z,944.49
2016-11-08T02:14:04.547Z,944.5
2016-11-08T02:15:04.562Z,944.49
2016-11-08T02:16:04.576Z,944.49
2016-11-08T02:17:04.596Z,944.47
2016-11-08T02:18:04.605Z,944.46
2016-11-08T02:19:04.620Z,944.47
2016-11-08T02:20:04.635Z,944.48
2016-11-08T02:21:04.647Z,944.45
2016-11-08T02:22:04.661Z,944.47
2016-11-08T02:23:04.675Z,944.47
2016-11-08T02:24:04.690Z,944.43
2016-11-08T02:25:04.704Z,944.46
2016-11-08T02:26:04.718Z,944.44
2016-11-08T02:27:04.733Z,944.47
2016-11-08T02:28:04.748Z,944.48
2016-11-08T02:29:04.763Z,944.48
2016-11-08T02:30:04.777Z,944.5
2016-11-08T02:31:04.791Z,944.5
2016-11-08T02:32:04.820Z,944.49
2016-11-08T02:33:04.821Z,944.49
2016-11-08T02:34:04.832Z,944.48
2016-11-08T02:35:04.848Z,944.49
2016-11-08T02:36:04.861Z,944.48
2016-11-08T02:37:04.877Z,944.48
2016-11-08T02:38:04.900Z,944.46
2016-11-08T02:39:04.906Z,944.48
2016-11-08T02:40:04.920Z,944.49
2016-11-08T02:41:04.935Z,944.47
2016-11-08T02:42:04.948Z,944.48
2016-11-08T02:43:04.962Z,944.46
2016-11-08T02:44:04.979Z,944.47
2016-11-08T02:45:04.992Z,944.49
2016-11-08T02:46:05.010Z,944.51
2016-11-08T02:47:05.021Z,944.48
2016-11-08T02:48:05.034Z,944.45
2016-11-08T02:49:05.049Z,944.44
2016-11-08T02:50:05.063Z,944.45
2016-11-08T02:51:05.078Z,944.48
2016-11-08T02:52:05.096Z,944.46
2016-11-08T02:53:05.106Z,944.39
2016-11-08T02:54:05.121Z,944.44
2016-11-08T02:55:05.136Z,944.43
2016-11-08T02:56:05.149Z,944.42
2016-11-08T02:57:05.164Z,944.38
2016-11-08T02:58:05.179Z,944.34
2016-11-08T02:59:05.193Z,944.35
2016-11-08T03:00:05.206Z,944.31
2016-11-08T03:01:05.231Z,944.31
2016-11-08T03:02:05.238Z,944.29
2016-11-08T03:03:05.251Z,944.3
2016-11-08T03:04:05.270Z,944.34
2016-11-08T03:05:05.280Z,944.31
2016-11-08T03:06:05.295Z,944.31
2016-11-08T03:07:05.308Z,944.27
2016-11-08T03:08:05.323Z,944.24
2016-11-08T03:09:05.337Z,944.29
2016-11-08T03:10:05.353Z,944.28
2016-11-08T03:11:05.366Z,944.31
2016-11-08T03:12:05.381Z,944.29
2016-11-08T03:13:05.395Z,944.3
2016-11-08T03:14:05.409Z,944.32
2016-11-08T03:15:05.424Z,944.34
2016-11-08T03:16:05.438Z,944.32
2016-11-08T03:17:05.453Z,944.36
2016-11-08T03:18:05.468Z,944.37
2016-11-08T03:19:05.481Z,944.4
2016-11-08T03:20:05.496Z,944.41
2016-11-08T03:21:05.510Z,944.38
2016-11-08T03:22:05.524Z,944.38
2016-11-08T03:23:05.539Z,944.38
2016-11-08T03:24:05.553Z,944.37
2016-11-08T03:25:05.567Z,944.36
2016-11-08T03:26:05.582Z,944.42
2016-11-08T03:27:05.595Z,944.37
2016-11-08T03:28:05.610Z,944.4
2016-11-08T03:29:05.624Z,944.4
2016-11-08T03:30:05.643Z,944.42
2016-11-08T03:31:05.653Z,944.39
2016-11-08T03:32:05.668Z,944.43
2016-11-08T03:33:05.682Z,944.42
2016-11-08T03:34:05.696Z,944.43
2016-11-08T03:35:05.710Z,944.41
2016-11-08T03:36:05.724Z,944.43
2016-11-08T03:37:05.739Z,944.4
2016-11-08T03:38:05.753Z,944.4
2016-11-08T03:39:05.767Z,944.4
2016-11-08T03:40:05.781Z,944.41
2016-11-08T03:41:05.796Z,944.41
2016-11-08T03:42:05.810Z,944.42
2016-11-08T03:43:05.826Z,944.4
2016-11-08T03:44:05.837Z,944.38
2016-11-08T03:45:05.852Z,944.4
2016-11-08T03:46:05.867Z,944.36
2016-11-08T03:47:05.882Z,944.37
2016-11-08T03:48:05.897Z,944.37
2016-11-08T03:49:05.911Z,944.42
2016-11-08T03:50:05.924Z,944.36
2016-11-08T03:51:05.937Z,944.34
2016-11-08T03:52:05.952Z,944.3
2016-11-08T03:53:05.966Z,944.31
2016-11-08T03:54:05.982Z,944.32
2016-11-08T03:55:05.995Z,944.32
2016-11-08T03:56:06.009Z,944.33
2016-11-08T03:57:06.025Z,944.31
2016-11-08T03:58:06.038Z,944.28
2016-11-08T03:59:06.054Z,944.28
2016-11-08T04:00:06.066Z,944.29
2016-11-08T04:01:06.080Z,944.29
2016-11-08T04:02:06.094Z,944.29
2016-11-08T04:03:06.108Z,944.31
2016-11-08T04:04:06.122Z,944.28
2016-11-08T04:05:06.137Z,944.29
2016-11-08T04:06:06.151Z,944.28
2016-11-08T04:07:06.164Z,944.31
2016-11-08T04:08:06.179Z,944.32
2016-11-08T04:09:06.192Z,944.28
2016-11-08T04:10:06.207Z,944.28
2016-11-08T04:11:06.221Z,944.26
2016-11-08T04:12:06.236Z,944.25
2016-11-08T04:13:06.258Z,944.26
2016-11-08T04:14:06.264Z,944.3
2016-11-08T04:15:06.279Z,944.28
2016-11-08T04:16:06.293Z,944.27
2016-11-08T04:17:06.305Z,944.3
2016-11-08T04:18:06.319Z,944.25
2016-11-08T04:19:06.334Z,944.25
2016-11-08T04:20:06.346Z,944.28
2016-11-08T04:21:06.362Z,944.31
2016-11-08T04:22:06.375Z,944.29
2016-11-08T04:23:06.389Z,944.3
2016-11-08T04:24:06.402Z,944.25
2016-11-08T04:25:06.417Z,944.28
2016-11-08T04:26:06.432Z,944.3
2016-11-08T04:27:06.445Z,944.29
2016-11-08T04:28:06.465Z,944.28
2016-11-08T04:29:06.474Z,944.3
2016-11-08T04:30:06.487Z,944.26
2016-11-08T04:31:06.500Z,944.3
2016-11-08T04:32:06.513Z,944.28
2016-11-08T04:33:06.528Z,944.26
2016-11-08T04:34:06.542Z,944.26
2016-11-08T04:35:06.556Z,944.23
2016-11-08T04:36:06.569Z,944.25
2016-11-08T04:37:06.583Z,944.26
2016-11-08T04:38:06.598Z,944.25
2016-11-08T04:39:06.612Z,944.27
2016-11-08T04:40:06.627Z,944.29
2016-11-08T04:41:06.640Z,944.25
2016-11-08T04:42:06.654Z,944.26
2016-11-08T04:43:06.668Z,944.23
2016-11-08T04:44:06.681Z,944.2
2016-11-08T04:45:06.696Z,944.25
2016-11-08T04:46:06.716Z,944.25
2016-11-08T04:47:06.723Z,944.24
2016-11-08T04:48:06.737Z,944.25
2016-11-08T04:49:06.751Z,944.22
2016-11-08T04:50:06.764Z,944.24
2016-11-08T04:51:06.777Z,944.25
2016-11-08T04:52:06.792Z,944.25
2016-11-08T04:53:06.805Z,944.29
2016-11-08T04:54:06.819Z,944.27
2016-11-08T04:55:06.832Z,944.32
2016-11-08T04:56:06.846Z,944.31
2016-11-08T04:57:06.875Z,944.3
2016-11-08T04:58:06.873Z,944.31
2016-11-08T04:59:06.886Z,944.33
2016-11-08T05:00:06.900Z,944.29
2016-11-08T05:01:06.917Z,944.32
2016-11-08T05:02:06.928Z,944.33
2016-11-08T05:03:06.942Z,944.31
2016-11-08T05:04:06.955Z,944.34
2016-11-08T05:05:06.969Z,944.27
2016-11-08T05:06:06.982Z,944.32
2016-11-08T05:07:06.997Z,944.36
2016-11-08T05:08:07.009Z,944.33
2016-11-08T05:09:07.022Z,944.32
2016-11-08T05:10:07.038Z,944.31
2016-11-08T05:11:07.063Z,944.28
2016-11-08T05:12:07.065Z,944.27
2016-11-08T05:13:07.078Z,944.28
2016-11-08T05:14:07.092Z,944.32
2016-11-08T05:15:07.106Z,944.31
2016-11-08T05:16:07.120Z,944.29
2016-11-08T05:17:07.133Z,944.28
2016-11-08T05:18:07.147Z,944.31
2016-11-08T05:19:07.161Z,944.36
2016-11-08T05:20:07.175Z,944.36
2016-11-08T05:21:07.188Z,944.32
2016-11-08T05:22:07.202Z,944.37
2016-11-08T05:23:07.216Z,944.37
2016-11-08T05:24:07.229Z,944.41
2016-11-08T05:25:07.245Z,944.4
2016-11-08T05:26:07.258Z,944.38
2016-11-08T05:27:07.271Z,944.4
2016-11-08T05:28:07.286Z,944.43
2016-11-08T05:29:07.299Z,944.41
2016-11-08T05:30:07.313Z,944.37
2016-11-08T05:31:07.326Z,944.44
2016-11-08T05:32:07.340Z,944.41
2016-11-08T05:33:07.355Z,944.46
2016-11-08T05:34:07.368Z,944.44
2016-11-08T05:35:07.382Z,944.43
2016-11-08T05:36:07.396Z,944.45
2016-11-08T05:37:07.410Z,944.48
2016-11-08T05:38:07.424Z,944.46
2016-11-08T05:39:07.437Z,944.48
2016-11-08T05:40:07.474Z,944.5
2016-11-08T05:41:07.465Z,944.5
2016-11-08T05:42:07.479Z,944.53
2016-11-08T05:43:07.493Z,944.52
2016-11-08T05:44:07.506Z,944.54
2016-11-08T05:45:07.520Z,944.55
2016-11-08T05:46:07.534Z,944.56
2016-11-08T05:47:07.552Z,944.56
2016-11-08T05:48:07.561Z,944.56
2016-11-08T05:49:07.576Z,944.55
2016-11-08T05:50:07.590Z,944.51
2016-11-08T05:51:07.603Z,944.59
2016-11-08T05:52:07.617Z,944.55
2016-11-08T05:53:07.630Z,944.56
2016-11-08T05:54:07.645Z,944.57
2016-11-08T05:55:07.657Z,944.57
2016-11-08T05:56:07.672Z,944.57
2016-11-08T05:57:07.686Z,944.59
2016-11-08T05:58:07.700Z,944.58
2016-11-08T05:59:07.712Z,944.61
2016-11-08T06:00:07.726Z,944.6
2016-11-08T06:01:07.739Z,944.62
2016-11-08T06:02:07.761Z,944.6
2016-11-08T06:03:07.767Z,944.62
2016-11-08T06:04:07.782Z,944.65
2016-11-08T06:05:07.796Z,944.65
2016-11-08T06:06:07.810Z,944.67
2016-11-08T06:07:07.822Z,944.68
2016-11-08T06:08:07.837Z,944.7
2016-11-08T06:09:07.850Z,944.68
2016-11-08T06:10:07.864Z,944.69
2016-11-08T06:11:07.878Z,944.67
2016-11-08T06:12:07.942Z,944.68
2016-11-08T06:13:07.905Z,944.7
2016-11-08T06:14:07.918Z,944.71
2016-11-08T06:15:07.932Z,944.71
2016-11-08T06:16:07.949Z,944.68
2016-11-08T06:17:07.960Z,944.75
2016-11-08T06:18:07.973Z,944.73
2016-11-08T06:19:07.989Z,944.75
2016-11-08T06:20:08.001Z,944.74
2016-11-08T06:21:08.015Z,944.75
2016-11-08T06:22:08.028Z,944.73
2016-11-08T06:23:08.043Z,944.77
2016-11-08T06:24:08.055Z,944.76
2016-11-08T06:25:08.069Z,944.77
2016-11-08T06:26:08.082Z,944.83
2016-11-08T06:27:08.098Z,944.8
2016-11-08T06:28:08.110Z,944.8
2016-11-08T06:29:08.124Z,944.8
2016-11-08T06:30:08.138Z,944.83
2016-11-08T06:31:08.170Z,944.79
2016-11-08T06:32:08.163Z,944.78
2016-11-08T06:33:08.177Z,944.77
2016-11-08T06:34:08.193Z,944.81
2016-11-08T06:35:08.431Z,944.85
2016-11-08T06:36:08.219Z,944.84
2016-11-08T06:37:08.233Z,944.88
2016-11-08T06:38:08.247Z,944.88
2016-11-08T06:39:08.260Z,944.87
2016-11-08T06:40:08.274Z,944.87
2016-11-08T06:41:08.286Z,944.9
2016-11-08T06:42:08.300Z,944.87
2016-11-08T06:44:08.328Z,944.84
2016-11-08T06:45:08.359Z,944.82
2016-11-08T06:46:08.355Z,944.86
2016-11-08T06:47:08.369Z,944.81
2016-11-08T06:48:08.383Z,944.85
2016-11-08T06:49:08.397Z,944.87
2016-11-08T06:50:08.411Z,944.83
2016-11-08T06:51:08.426Z,944.86
2016-11-08T06:52:08.437Z,944.85
2016-11-08T06:53:08.453Z,944.89
2016-11-08T06:54:08.466Z,944.92
2016-11-08T06:55:08.480Z,944.93
2016-11-08T06:56:08.494Z,944.95
2016-11-08T06:57:08.506Z,944.97
2016-11-08T06:58:08.520Z,944.94
2016-11-08T06:59:08.535Z,944.97
2016-11-08T07:00:08.550Z,944.95
2016-11-08T07:01:08.562Z,944.98
2016-11-08T07:02:08.577Z,945
2016-11-08T07:03:08.590Z,945.01
2016-11-08T07:04:08.605Z,945.03
2016-11-08T07:05:08.618Z,945.04
2016-11-08T07:06:08.632Z,945.02
2016-11-08T07:07:08.648Z,945.06
2016-11-08T07:08:08.661Z,945.06
2016-11-08T07:09:08.675Z,945.09
2016-11-08T07:10:08.688Z,945.09
2016-11-08T07:11:08.702Z,945.09
2016-11-08T07:12:08.716Z,945.13
2016-11-08T07:13:08.730Z,945.09
2016-11-08T07:14:08.743Z,945.08
2016-11-08T07:15:08.759Z,945.11
2016-11-08T07:16:08.772Z,945.1
2016-11-08T07:17:08.785Z,945.1
2016-11-08T07:18:08.800Z,945.11
2016-11-08T07:19:08.813Z,945.11
2016-11-08T07:20:08.827Z,945.1
2016-11-08T07:21:08.845Z,945.08
2016-11-08T07:22:08.861Z,945.11
2016-11-08T07:23:08.870Z,945.12
2016-11-08T07:24:08.884Z,945.1
2016-11-08T07:25:08.898Z,945.09
2016-11-08T07:26:08.913Z,945.15
2016-11-08T07:27:08.927Z,945.15
2016-11-08T07:28:08.940Z,945.16
2016-11-08T07:29:08.955Z,945.16
2016-11-08T07:30:08.968Z,945.16
2016-11-08T07:31:08.982Z,945.18
2016-11-08T07:32:08.998Z,945.15
2016-11-08T07:33:09.012Z,945.12
2016-11-08T07:34:09.025Z,945.11
2016-11-08T07:35:09.038Z,945.14
2016-11-08T07:36:09.066Z,945.1
2016-11-08T07:37:09.068Z,945.13
2016-11-08T07:38:09.081Z,945.13
2016-11-08T07:39:09.097Z,945.17
2016-11-08T07:40:09.111Z,945.17
2016-11-08T07:41:09.126Z,945.15
2016-11-08T07:42:09.139Z,945.18
2016-11-08T07:43:09.158Z,945.18
2016-11-08T07:44:09.168Z,945.17
2016-11-08T07:45:09.182Z,945.16
2016-11-08T07:46:09.197Z,945.17
2016-11-08T07:47:09.212Z,945.2
2016-11-08T07:48:09.229Z,945.19
2016-11-08T07:49:09.240Z,945.24
2016-11-08T07:50:09.257Z,945.23
2016-11-08T07:51:09.271Z,945.26
2016-11-08T07:52:09.284Z,945.26
2016-11-08T07:53:09.299Z,945.3
2016-11-08T07:54:09.313Z,945.33
2016-11-08T07:55:09.328Z,945.29
2016-11-08T07:56:09.342Z,945.29
2016-11-08T07:57:09.357Z,945.3
2016-11-08T07:58:09.374Z,945.34
2016-11-08T07:59:09.386Z,945.37
2016-11-08T08:00:09.402Z,945.39
2016-11-08T08:01:09.415Z,945.35
2016-11-08T08:02:09.430Z,945.38
2016-11-08T08:03:09.444Z,945.37
2016-11-08T08:04:09.462Z,945.41
2016-11-08T08:05:09.478Z,945.43
2016-11-08T08:06:09.490Z,945.41
2016-11-08T08:07:09.504Z,945.44
2016-11-08T08:08:09.519Z,945.43
2016-11-08T08:09:09.534Z,945.45
2016-11-08T08:10:09.548Z,945.46
2016-11-08T08:11:09.564Z,945.45
2016-11-08T08:12:09.591Z,945.46
2016-11-08T08:13:09.595Z,945.47
2016-11-08T08:14:09.609Z,945.44
2016-11-08T08:15:09.624Z,945.45
2016-11-08T08:16:09.640Z,945.49
2016-11-08T08:17:09.655Z,945.49
2016-11-08T08:18:09.672Z,945.48
2016-11-08T08:19:09.687Z,945.47
2016-11-08T08:20:09.702Z,945.47
2016-11-08T08:21:09.716Z,945.5
2016-11-08T08:22:09.732Z,945.54
2016-11-08T08:23:09.748Z,945.46
2016-11-08T08:24:09.765Z,945.46
2016-11-08T08:25:09.779Z,945.47
2016-11-08T08:26:09.796Z,945.5
2016-11-08T08:27:09.813Z,945.51
2016-11-08T08:28:09.826Z,945.51
2016-11-08T08:29:09.842Z,945.53
2016-11-08T08:30:09.858Z,945.51
2016-11-08T08:31:09.873Z,945.47
2016-11-08T08:32:09.889Z,945.51
2016-11-08T08:33:09.904Z,945.44
2016-11-08T08:34:09.937Z,945.49
2016-11-08T08:35:09.936Z,945.48
2016-11-08T08:36:09.951Z,945.5
2016-11-08T08:37:09.969Z,945.49
2016-11-08T08:38:09.983Z,945.5
2016-11-08T08:39:10.000Z,945.5
2016-11-08T08:40:10.015Z,945.5
2016-11-08T08:41:10.032Z,945.52
2016-11-08T08:42:10.047Z,945.51
2016-11-08T08:43:10.065Z,945.48
2016-11-08T08:44:10.078Z,945.47
2016-11-08T08:45:10.093Z,945.47
2016-11-08T08:46:10.110Z,945.53
2016-11-08T08:47:10.125Z,945.48
2016-11-08T08:48:10.142Z,945.48
2016-11-08T08:49:10.159Z,945.49
2016-11-08T08:50:10.175Z,945.5
2016-11-08T08:51:10.190Z,945.49
2016-11-08T08:52:10.207Z,945.57
2016-11-08T08:53:10.223Z,945.49
2016-11-08T08:54:10.239Z,945.54
2016-11-08T08:55:10.255Z,945.55
2016-11-08T08:56:10.281Z,945.53
2016-11-08T08:57:10.289Z,945.56
2016-11-08T08:58:10.305Z,945.6
2016-11-08T08:59:10.322Z,945.58
2016-11-08T09:00:10.339Z,945.62
2016-11-08T09:01:10.354Z,945.59
2016-11-08T09:02:10.371Z,945.64
2016-11-08T09:03:10.387Z,945.63
2016-11-08T09:04:10.405Z,945.65
2016-11-08T09:05:10.420Z,945.7
2016-11-08T09:06:10.438Z,945.65
2016-11-08T09:07:10.455Z,945.66
2016-11-08T09:08:10.472Z,945.66
2016-11-08T09:09:10.487Z,945.65
2016-11-08T09:10:10.506Z,945.66
2016-11-08T09:11:10.523Z,945.68
2016-11-08T09:12:10.540Z,945.69
2016-11-08T09:13:10.556Z,945.7
2016-11-08T09:14:10.573Z,945.71
2016-11-08T09:15:10.590Z,945.7
2016-11-08T09:16:10.607Z,945.66
2016-11-08T09:17:10.623Z,945.69
2016-11-08T09:18:10.639Z,945.63
2016-11-08T09:19:10.658Z,945.66
2016-11-08T09:20:10.672Z,945.61
2016-11-08T09:21:10.690Z,945.65
2016-11-08T09:22:10.707Z,945.72
2016-11-08T09:23:10.723Z,945.72
2016-11-08T09:24:10.740Z,945.72
2016-11-08T09:25:10.757Z,945.72
2016-11-08T09:26:10.784Z,945.76
2016-11-08T09:27:10.790Z,945.75
2016-11-08T09:28:10.806Z,945.77
2016-11-08T09:29:10.823Z,945.78
2016-11-08T09:30:10.841Z,945.73
2016-11-08T09:31:10.854Z,945.79
2016-11-08T09:32:10.873Z,945.79
2016-11-08T09:33:10.906Z,945.81
2016-11-08T09:34:10.904Z,945.82
2016-11-08T09:35:10.921Z,945.84
2016-11-08T09:36:10.936Z,945.82
2016-11-08T09:37:10.954Z,945.89
2016-11-08T09:38:10.971Z,945.84
2016-11-08T09:39:10.986Z,945.82
2016-11-08T09:40:11.004Z,945.83
2016-11-08T09:41:11.020Z,945.86
2016-11-08T09:42:11.037Z,945.86
2016-11-08T09:43:11.054Z,945.8
2016-11-08T09:44:11.071Z,945.83
2016-11-08T09:45:11.086Z,945.86
2016-11-08T09:46:11.105Z,945.82
2016-11-08T09:47:11.122Z,945.81
2016-11-08T09:48:11.139Z,945.83
2016-11-08T09:49:11.155Z,945.83
2016-11-08T09:50:11.173Z,945.84
2016-11-08T09:51:11.190Z,945.83
2016-11-08T09:52:11.208Z,945.82
2016-11-08T09:53:11.223Z,945.84
2016-11-08T09:54:11.241Z,945.84
2016-11-08T09:55:11.268Z,945.87
2016-11-08T09:56:11.275Z,945.8
2016-11-08T09:57:11.293Z,945.84
2016-11-08T09:58:11.309Z,945.81
2016-11-08T09:59:11.327Z,945.85
2016-11-08T10:00:11.342Z,945.81
2016-11-08T10:01:11.360Z,945.83
2016-11-08T10:02:11.378Z,945.83
2016-11-08T10:03:11.408Z,945.8
2016-11-08T10:04:11.413Z,945.72
2016-11-08T10:05:11.429Z,945.79
2016-11-08T10:06:11.446Z,945.76
2016-11-08T10:07:11.463Z,945.75
2016-11-08T10:08:11.479Z,945.73
2016-11-08T10:09:11.497Z,945.69
2016-11-08T10:10:11.534Z,945.75
2016-11-08T10:11:11.530Z,945.72
2016-11-08T10:12:11.547Z,945.71
2016-11-08T10:13:11.567Z,945.74
2016-11-08T10:14:11.583Z,945.66
2016-11-08T10:15:11.600Z,945.71
2016-11-08T10:16:11.616Z,945.74
2016-11-08T10:17:11.634Z,945.73
2016-11-08T10:18:11.650Z,945.67
2016-11-08T10:19:11.667Z,945.7
2016-11-08T10:20:11.685Z,945.67
2016-11-08T10:21:11.702Z,945.7
2016-11-08T10:22:11.718Z,945.68
2016-11-08T10:23:11.740Z,945.69
2016-11-08T10:24:11.753Z,945.68
2016-11-08T10:25:11.772Z,945.7
2016-11-08T10:26:11.787Z,945.75
2016-11-08T10:27:11.805Z,945.72
2016-11-08T10:28:11.822Z,945.71
2016-11-08T10:29:11.839Z,945.69
2016-11-08T10:30:11.856Z,945.67
2016-11-08T10:31:11.956Z,945.7
2016-11-08T10:32:11.889Z,945.67
2016-11-08T10:33:11.907Z,945.65
2016-11-08T10:34:11.923Z,945.65
2016-11-08T10:35:11.941Z,945.68
2016-11-08T10:36:11.958Z,945.67
2016-11-08T10:37:11.975Z,945.7
2016-11-08T10:38:11.991Z,945.72
2016-11-08T10:39:12.009Z,945.72
2016-11-08T10:40:12.032Z,945.65
2016-11-08T10:41:12.043Z,945.69
2016-11-08T10:42:12.058Z,945.74
2016-11-08T10:43:12.078Z,945.72
2016-11-08T10:44:12.092Z,945.69
2016-11-08T10:45:12.109Z,945.71
2016-11-08T10:46:12.127Z,945.72
2016-11-08T10:47:12.155Z,945.72
2016-11-08T10:48:12.161Z,945.68
2016-11-08T10:49:12.177Z,945.72
2016-11-08T10:50:12.194Z,945.67
2016-11-08T10:51:12.211Z,945.65
2016-11-08T10:52:12.227Z,945.63
2016-11-08T10:53:12.243Z,945.64
2016-11-08T10:54:12.261Z,945.61
2016-11-08T10:55:12.276Z,945.63
2016-11-08T10:56:12.293Z,945.62
2016-11-08T10:57:12.310Z,945.62
2016-11-08T10:58:12.326Z,945.58
2016-11-08T10:59:12.344Z,945.6
2016-11-08T11:00:12.361Z,945.55
2016-11-08T11:01:12.378Z,945.56
2016-11-08T11:02:12.394Z,945.59
2016-11-08T11:03:12.412Z,945.56
2016-11-08T11:04:12.429Z,945.56
2016-11-08T11:05:12.448Z,945.58
2016-11-08T11:06:12.465Z,945.57
2016-11-08T11:07:12.482Z,945.51
2016-11-08T11:08:12.499Z,945.58
2016-11-08T11:09:12.518Z,945.58
2016-11-08T11:10:12.533Z,945.62
2016-11-08T11:11:12.551Z,945.58
2016-11-08T11:12:12.569Z,945.63
2016-11-08T11:13:12.586Z,945.61
2016-11-08T11:14:12.605Z,945.68
2016-11-08T11:15:12.623Z,945.65
2016-11-08T11:16:12.639Z,945.64
2016-11-08T11:17:12.663Z,945.61
2016-11-08T11:18:12.676Z,945.66
2016-11-08T11:19:12.694Z,945.64
2016-11-08T11:20:12.712Z,945.63
2016-11-08T11:21:12.730Z,945.63
2016-11-08T11:22:12.748Z,945.68
2016-11-08T11:23:12.766Z,945.64
2016-11-08T11:24:12.787Z,945.63
2016-11-08T11:25:12.802Z,945.63
2016-11-08T11:26:12.820Z,945.61
2016-11-08T11:27:12.838Z,945.59
2016-11-08T11:28:12.856Z,945.56
2016-11-08T11:29:12.874Z,945.64
2016-11-08T11:30:12.891Z,945.61
2016-11-08T11:31:12.908Z,945.58
2016-11-08T11:32:12.946Z,945.59
2016-11-08T11:33:12.944Z,945.61
2016-11-08T11:34:12.962Z,945.59
2016-11-08T11:35:12.980Z,945.53
2016-11-08T11:36:12.997Z,945.56
2016-11-08T11:37:13.014Z,945.56
2016-11-08T11:38:13.032Z,945.55
2016-11-08T11:39:13.070Z,945.56
2016-11-08T11:40:13.067Z,945.6
2016-11-08T11:41:13.083Z,945.55
2016-11-08T11:42:13.101Z,945.52
2016-11-08T11:43:13.119Z,945.61
2016-11-08T11:44:13.137Z,945.58
2016-11-08T11:45:13.155Z,945.6
2016-11-08T11:46:13.173Z,945.6
2016-11-08T11:47:13.189Z,945.57
2016-11-08T11:48:13.206Z,945.58
2016-11-08T11:49:13.222Z,945.51
2016-11-08T11:50:13.240Z,945.52
2016-11-08T11:51:13.256Z,945.52
2016-11-08T11:52:13.275Z,945.53
2016-11-08T11:53:13.292Z,945.52
2016-11-08T11:54:13.311Z,945.58
2016-11-08T11:55:13.327Z,945.53
2016-11-08T11:56:13.344Z,945.49
2016-11-08T11:57:13.361Z,945.47
2016-11-08T11:58:13.379Z,945.46
2016-11-08T11:59:13.399Z,945.48
2016-11-08T12:00:13.415Z,945.47
2016-11-08T12:01:13.431Z,945.47
2016-11-08T12:02:13.451Z,945.44
2016-11-08T12:03:13.466Z,945.47
2016-11-08T12:04:13.484Z,945.44
2016-11-08T12:05:13.501Z,945.41
2016-11-08T12:06:13.527Z,945.41
2016-11-08T12:07:13.537Z,945.42
2016-11-08T12:08:13.554Z,945.41
2016-11-08T12:09:13.579Z,945.41
2016-11-08T12:10:13.589Z,945.41
2016-11-08T12:11:13.607Z,945.42
2016-11-08T12:12:13.625Z,945.38
2016-11-08T12:13:13.643Z,945.43
2016-11-08T12:14:13.662Z,945.39
2016-11-08T12:15:13.679Z,945.4
2016-11-08T12:16:13.704Z,945.44
2016-11-08T12:17:13.715Z,945.34
2016-11-08T12:18:13.733Z,945.4
2016-11-08T12:19:13.752Z,945.35
2016-11-08T12:20:13.769Z,945.31
2016-11-08T12:21:13.788Z,945.35
2016-11-08T12:22:13.808Z,945.35
2016-11-08T12:23:13.824Z,945.34
2016-11-08T12:24:13.862Z,945.34
2016-11-08T12:25:13.862Z,945.36
2016-11-08T12:26:13.880Z,945.38
2016-11-08T12:27:13.900Z,945.4
2016-11-08T12:28:13.918Z,945.41
2016-11-08T12:29:13.935Z,945.36
2016-11-08T12:30:13.954Z,945.4
2016-11-08T12:31:13.987Z,945.4
2016-11-08T12:32:13.990Z,945.4